createdAt,value
2022-12-01T00:02:30.190Z,101739.30
2022-12-01T00:07:33.442Z,101739.67
2022-12-01T00:12:36.547Z,101741.23
2022-12-01T00:17:39.620Z,101735.51
2022-12-01T00:22:44.269Z,101744.54
2022-12-01T00:27:52.289Z,101748.20
2022-12-01T00:32:55.396Z,101743.70
2022-12-01T00:37:58.405Z,101747.81
2022-12-01T00:43:01.416Z,101747.75
2022-12-01T00:48:04.826Z,101744.98
2022-12-01T00:53:07.836Z,101740.44
2022-12-01T00:58:11.862Z,101737.92
2022-12-01T01:03:14.869Z,101736.57
2022-12-01T01:08:17.874Z,101734.47
2022-12-01T01:13:20.785Z,101736.27
2022-12-01T01:18:23.787Z,101731.01
2022-12-01T01:23:27.306Z,101728.37
2022-12-01T01:28:31.742Z,101729.45
2022-12-01T01:33:34.854Z,101723.31
2022-12-01T01:38:37.960Z,101719.30
2022-12-01T01:43:40.967Z,101717.87
2022-12-01T01:48:48.423Z,101716.46
2022-12-01T01:53:54.508Z,101716.18
2022-12-01T01:58:58.434Z,101710.48
2022-12-01T02:04:01.576Z,101707.13
2022-12-01T02:09:04.501Z,101709.58
2022-12-01T02:14:26.345Z,101708.48
2022-12-01T02:19:44.304Z,101713.63
2022-12-01T02:25:02.361Z,101709.49
2022-12-01T02:30:05.375Z,101715.73
2022-12-01T02:35:49.437Z,101714.42
2022-12-01T02:41:20.295Z,101719.77
2022-12-01T02:46:23.276Z,101722.05
2022-12-01T02:51:32.318Z,101720.05
2022-12-01T02:56:35.255Z,101722.49
2022-12-01T03:01:56.801Z,101721.92
2022-12-01T03:07:37.820Z,101724.63
2022-12-01T03:12:49.682Z,101717.02
2022-12-01T03:18:24.539Z,101718.13
2022-12-01T03:23:31.503Z,101715.86
2022-12-01T03:28:39.249Z,101713.06
2022-12-01T03:34:37.970Z,101712.61
2022-12-01T03:39:44.072Z,101719.73
2022-12-01T03:44:57.085Z,101722.36
2022-12-01T03:50:00.931Z,101721.13
2022-12-01T03:55:16.311Z,101727.77
2022-12-01T04:00:20.461Z,101724.45
2022-12-01T04:05:25.464Z,101728.03
2022-12-01T04:10:28.705Z,101723.88
2022-12-01T04:15:31.718Z,101722.41
2022-12-01T04:20:34.722Z,101714.77
2022-12-01T04:25:37.627Z,101714.20
2022-12-01T04:30:40.633Z,101710.52
2022-12-01T04:35:43.641Z,101711.52
2022-12-01T04:40:46.849Z,101714.44
2022-12-01T04:45:49.961Z,101711.46
2022-12-01T04:50:52.963Z,101713.48
2022-12-01T04:55:56.070Z,101715.11
2022-12-01T05:01:04.091Z,101714.73
2022-12-01T05:06:11.382Z,101713.19
2022-12-01T05:11:14.927Z,101716.14
2022-12-01T05:16:30.124Z,101716.86
2022-12-01T05:21:33.121Z,101716.84
2022-12-01T05:26:36.225Z,101714.95
2022-12-01T05:31:39.985Z,101717.25
2022-12-01T05:36:43.058Z,101716.40
2022-12-01T05:41:45.960Z,101717.52
2022-12-01T05:46:49.072Z,101717.16
2022-12-01T05:51:52.281Z,101723.02
2022-12-01T05:56:55.287Z,101721.64
2022-12-01T06:01:58.488Z,101723.11
2022-12-01T06:07:01.620Z,101725.27
2022-12-01T06:12:04.824Z,101723.63
2022-12-01T06:17:07.929Z,101727.18
2022-12-01T06:22:11.241Z,101725.19
2022-12-01T06:27:14.348Z,101723.83
2022-12-01T06:32:17.866Z,101730.65
2022-12-01T06:37:21.077Z,101733.64
2022-12-01T06:42:24.085Z,101736.81
2022-12-01T06:47:27.601Z,101735.10
2022-12-01T06:52:30.506Z,101736.88
2022-12-01T06:57:33.513Z,101732.34
2022-12-01T07:02:36.676Z,101730.52
2022-12-01T07:07:40.300Z,101724.38
2022-12-01T07:12:43.351Z,101723.40
2022-12-01T07:17:46.256Z,101738.75
2022-12-01T07:22:49.465Z,101735.50
2022-12-01T07:27:52.369Z,101732.46
2022-12-01T07:32:55.380Z,101740.98
2022-12-01T07:37:58.488Z,101741.39
2022-12-01T07:43:01.490Z,101740.67
2022-12-01T07:48:04.603Z,101741.51
2022-12-01T07:53:07.502Z,101735.52
2022-12-01T07:58:10.408Z,101731.96
2022-12-01T08:03:13.658Z,101738.08
2022-12-01T08:08:16.652Z,101735.10
2022-12-01T08:13:20.925Z,101735.11
2022-12-01T08:18:24.687Z,101732.73
2022-12-01T08:23:27.799Z,101738.23
2022-12-01T08:28:31.827Z,101736.05
2022-12-01T08:33:35.038Z,101738.87
2022-12-01T08:38:38.352Z,101738.11
2022-12-01T08:44:00.415Z,101740.96
2022-12-01T08:49:06.344Z,101738.65
2022-12-01T08:54:11.222Z,101744.47
2022-12-01T08:59:14.340Z,101747.45
2022-12-01T09:04:22.367Z,101744.21
2022-12-01T09:09:28.597Z,101745.33
2022-12-01T09:14:31.647Z,101744.88
2022-12-01T09:19:35.554Z,101743.70
2022-12-01T09:24:38.791Z,101738.88
2022-12-01T09:29:41.902Z,101733.24
2022-12-01T09:34:45.111Z,101725.86
2022-12-01T09:39:48.463Z,101722.36
2022-12-01T09:44:54.611Z,101724.02
2022-12-01T09:50:16.657Z,101718.54
2022-12-01T09:55:23.328Z,101715.20
2022-12-01T10:00:31.909Z,101716.32
2022-12-01T10:11:40.203Z,101714.55
2022-12-01T10:16:55.811Z,101713.11
2022-12-01T10:22:13.917Z,101712.48
2022-12-01T10:27:16.820Z,101711.02
2022-12-01T10:32:26.433Z,101706.55
2022-12-01T10:37:30.952Z,101703.10
2022-12-01T10:42:41.327Z,101701.09
2022-12-01T10:48:09.449Z,101699.66
2022-12-01T10:53:32.415Z,101693.41
2022-12-01T10:58:49.918Z,101692.88
2022-12-01T11:04:42.691Z,101693.73
2022-12-01T11:09:48.688Z,101694.87
2022-12-01T11:14:54.645Z,101691.84
2022-12-01T11:19:57.789Z,101689.86
2022-12-01T11:25:05.675Z,101691.34
2022-12-01T11:30:21.483Z,101686.19
2022-12-01T11:35:32.168Z,101680.77
2022-12-01T11:40:56.340Z,101680.64
2022-12-01T11:46:07.692Z,101678.08
2022-12-01T11:51:20.140Z,101676.91
2022-12-01T11:56:28.801Z,101673.27
2022-12-01T12:01:40.857Z,101671.48
2022-12-01T12:07:01.476Z,101670.45
2022-12-01T12:12:10.422Z,101669.09
2022-12-01T12:17:28.242Z,101664.28
2022-12-01T12:22:40.397Z,101670.98
2022-12-01T12:28:03.275Z,101664.55
2022-12-01T12:33:42.639Z,101663.09
2022-12-01T12:39:01.301Z,101661.95
2022-12-01T12:44:25.707Z,101657.55
2022-12-01T12:49:44.392Z,101653.07
2022-12-01T12:54:51.797Z,101647.70
2022-12-01T13:00:03.608Z,101644.48
2022-12-01T13:05:18.925Z,101639.42
2022-12-01T13:10:43.410Z,101636.30
2022-12-01T13:15:50.690Z,101635.42
2022-12-01T13:20:55.979Z,101627.92
2022-12-01T13:26:01.749Z,101628.86
2022-12-01T13:31:11.345Z,101628.95
2022-12-01T13:41:39.704Z,101628.40
2022-12-01T13:46:42.998Z,101625.64
2022-12-01T13:52:23.369Z,101631.47
2022-12-01T13:57:29.428Z,101632.34
2022-12-01T14:02:35.176Z,101630.16
2022-12-01T14:07:39.054Z,101629.14
2022-12-01T14:12:46.030Z,101628.80
2022-12-01T14:18:00.695Z,101627.49
2022-12-01T14:23:24.795Z,101624.77
2022-12-01T14:28:56.045Z,101617.83
2022-12-01T14:34:01.634Z,101618.09
2022-12-01T14:39:13.265Z,101618.05
2022-12-01T14:44:36.152Z,101614.84
2022-12-01T14:49:57.653Z,101611.02
2022-12-01T14:55:07.321Z,101609.27
2022-12-01T15:00:16.615Z,101609.94
2022-12-01T15:05:27.481Z,101612.45
2022-12-01T15:10:35.458Z,101610.75
2022-12-01T15:15:53.449Z,101608.95
2022-12-01T15:21:02.053Z,101606.52
2022-12-01T15:26:05.361Z,101604.25
2022-12-01T15:31:12.954Z,101601.05
2022-12-01T15:36:16.557Z,101609.70
2022-12-01T15:41:29.936Z,101615.89
2022-12-01T15:46:34.746Z,101604.64
2022-12-01T15:51:37.939Z,101605.27
2022-12-01T15:56:41.869Z,101603.45
2022-12-01T16:01:45.658Z,101599.32
2022-12-01T16:07:10.203Z,101599.77
2022-12-01T16:12:22.219Z,101599.77
2022-12-01T16:17:26.431Z,101600.01
2022-12-01T16:22:29.563Z,101598.39
2022-12-01T16:27:32.778Z,101603.86
2022-12-01T16:32:43.995Z,101606.10
2022-12-01T16:37:47.194Z,101605.29
2022-12-01T16:42:50.601Z,101611.13
2022-12-01T16:47:53.619Z,101611.52
2022-12-01T16:52:56.723Z,101612.79
2022-12-01T16:57:59.830Z,101609.49
2022-12-01T17:03:04.579Z,101609.25
2022-12-01T17:08:07.735Z,101610.67
2022-12-01T17:13:11.860Z,101615.16
2022-12-01T17:18:17.072Z,101613.52
2022-12-01T17:23:20.176Z,101610.63
2022-12-01T17:28:23.289Z,101611.73
2022-12-01T17:33:26.295Z,101608.63
2022-12-01T17:38:29.527Z,101599.61
2022-12-01T17:43:34.766Z,101593.26
2022-12-01T17:48:40.640Z,101598.40
2022-12-01T17:53:43.644Z,101596.38
2022-12-01T17:58:49.473Z,101597.94
2022-12-01T18:03:53.038Z,101599.45
2022-12-01T18:08:57.620Z,101598.09
2022-12-01T18:14:01.530Z,101594.25
2022-12-01T18:19:04.726Z,101591.51
2022-12-01T18:24:12.025Z,101588.45
2022-12-01T18:29:25.905Z,101592.92
2022-12-01T18:34:32.034Z,101597.40
2022-12-01T18:39:35.080Z,101599.66
2022-12-01T18:44:39.106Z,101600.08
2022-12-01T18:49:42.310Z,101597.04
2022-12-01T18:54:45.419Z,101602.74
2022-12-01T18:59:48.543Z,101608.86
2022-12-01T19:04:51.841Z,101605.23
2022-12-01T19:09:55.164Z,101599.39
2022-12-01T19:14:58.463Z,101602.33
2022-12-01T19:20:01.783Z,101604.67
2022-12-01T19:25:05.742Z,101605.30
2022-12-01T19:30:09.362Z,101611.13
2022-12-01T19:35:12.651Z,101612.29
2022-12-01T19:40:15.877Z,101606.80
2022-12-01T19:45:19.073Z,101610.98
2022-12-01T19:50:22.085Z,101605.84
2022-12-01T19:55:25.394Z,101603.16
2022-12-01T20:00:28.609Z,101603.77
2022-12-01T20:05:32.819Z,101603.93
2022-12-01T20:10:35.843Z,101607.33
2022-12-01T20:15:39.071Z,101614.54
2022-12-01T20:20:42.367Z,101612.98
2022-12-01T20:25:45.269Z,101606.77
2022-12-01T20:30:48.282Z,101606.48
2022-12-01T20:35:51.801Z,101605.88
2022-12-01T20:40:55.243Z,101609.21
2022-12-01T20:45:58.280Z,101611.02
2022-12-01T20:51:03.894Z,101608.81
2022-12-01T20:56:10.038Z,101611.13
2022-12-01T21:01:16.475Z,101612.48
2022-12-01T21:06:20.588Z,101613.05
2022-12-01T21:11:47.865Z,101616.57
2022-12-01T21:16:55.331Z,101620.15
2022-12-01T21:21:59.040Z,101624.41
2022-12-01T21:27:13.165Z,101623.05
2022-12-01T21:32:19.957Z,101624.23
2022-12-01T21:37:25.112Z,101623.69
2022-12-01T21:42:31.715Z,101620.36
2022-12-01T21:47:35.076Z,101626.30
2022-12-01T21:52:42.019Z,101624.48
2022-12-01T21:57:47.298Z,101625.48
2022-12-01T22:02:52.529Z,101623.00
2022-12-01T22:08:10.022Z,101617.64
2022-12-01T22:13:13.199Z,101615.35
2022-12-01T22:18:25.504Z,101609.24
2022-12-01T22:23:34.062Z,101610.79
2022-12-01T22:28:37.169Z,101611.58
2022-12-01T22:33:40.174Z,101611.88
2022-12-01T22:38:43.481Z,101608.57
2022-12-01T22:43:49.565Z,101610.88
2022-12-01T22:49:01.171Z,101604.43
2022-12-01T22:54:10.323Z,101602.11
2022-12-01T22:59:15.324Z,101601.17
2022-12-01T23:04:29.745Z,101593.70
2022-12-01T23:09:40.546Z,101594.12
2022-12-01T23:14:46.612Z,101586.25
2022-12-01T23:19:52.441Z,101589.77
2022-12-01T23:24:55.391Z,101586.55
2022-12-01T23:29:59.225Z,101588.04
2022-12-01T23:35:02.669Z,101587.05
2022-12-01T23:40:20.691Z,101584.00
2022-12-01T23:45:26.001Z,101576.80
2022-12-01T23:50:30.755Z,101578.73
2022-12-01T23:55:34.522Z,101582.20
